createdAt,value
2023-05-09T00:00:28.520Z,68.80
2023-05-09T00:03:12.305Z,68.58
2023-05-09T00:05:39.262Z,68.97
2023-05-09T00:08:06.069Z,69.18
2023-05-09T00:10:32.906Z,68.91
2023-05-09T00:13:00.538Z,68.90
2023-05-09T00:15:28.304Z,68.75
2023-05-09T00:17:54.979Z,68.70
2023-05-09T00:20:21.731Z,68.80
2023-05-09T00:22:48.196Z,68.92
2023-05-09T00:25:15.006Z,69.06
2023-05-09T00:27:41.753Z,69.14
2023-05-09T00:30:08.483Z,69.39
2023-05-09T00:32:35.626Z,70.17
2023-05-09T00:35:02.540Z,69.61
2023-05-09T00:37:30.707Z,69.79
2023-05-09T00:39:57.465Z,69.55
2023-05-09T00:42:24.328Z,69.55
2023-05-09T00:44:50.911Z,69.47
2023-05-09T00:47:17.858Z,69.50
2023-05-09T00:49:44.517Z,69.70
2023-05-09T00:52:11.271Z,69.68
2023-05-09T00:54:38.199Z,69.48
2023-05-09T00:57:04.897Z,69.55
2023-05-09T00:59:31.399Z,69.48
2023-05-09T01:01:58.341Z,69.70
2023-05-09T01:04:25.308Z,70.21
2023-05-09T01:07:08.319Z,69.85
2023-05-09T01:09:48.964Z,69.53
2023-05-09T01:12:34.381Z,69.47
2023-05-09T01:15:11.492Z,69.42
2023-05-09T01:18:06.759Z,69.71
2023-05-09T01:20:45.040Z,69.54
2023-05-09T01:23:22.502Z,69.72
2023-05-09T01:26:05.566Z,69.91
2023-05-09T01:29:01.203Z,69.83
2023-05-09T01:31:28.276Z,70.02
2023-05-09T01:33:59.284Z,70.12
2023-05-09T01:36:29.469Z,70.24
2023-05-09T01:38:57.866Z,70.06
2023-05-09T01:41:29.887Z,70.43
2023-05-09T01:43:58.704Z,70.53
2023-05-09T01:46:26.736Z,70.58
2023-05-09T01:48:54.770Z,70.71
2023-05-09T01:51:22.483Z,70.41
2023-05-09T01:53:52.851Z,70.62
2023-05-09T01:56:21.892Z,71.17
2023-05-09T01:58:50.838Z,70.68
2023-05-09T02:01:19.030Z,71.27
2023-05-09T02:03:50.134Z,70.83
2023-05-09T02:06:20.430Z,70.92
2023-05-09T02:08:48.296Z,70.65
2023-05-09T02:11:14.999Z,71.77
2023-05-09T02:13:42.025Z,71.58
2023-05-09T02:16:09.784Z,71.72
2023-05-09T02:18:36.653Z,71.43
2023-05-09T02:21:03.920Z,71.44
2023-05-09T02:23:30.849Z,71.63
2023-05-09T02:25:57.451Z,71.46
2023-05-09T02:28:27.016Z,71.60
2023-05-09T02:30:58.014Z,71.67
2023-05-09T02:33:26.819Z,71.93
2023-05-09T02:35:54.911Z,72.26
2023-05-09T02:38:21.740Z,71.72
2023-05-09T02:40:52.289Z,72.05
2023-05-09T02:43:19.482Z,71.94
2023-05-09T02:45:46.106Z,72.38
2023-05-09T02:48:12.774Z,71.88
2023-05-09T02:50:42.241Z,72.43
2023-05-09T02:53:09.098Z,72.10
2023-05-09T02:55:35.737Z,72.31
2023-05-09T02:58:12.798Z,72.51
2023-05-09T03:00:42.059Z,72.60
2023-05-09T03:03:08.908Z,72.30
2023-05-09T03:05:35.513Z,72.37
2023-05-09T03:08:02.176Z,72.53
2023-05-09T03:10:28.896Z,72.73
2023-05-09T03:12:55.468Z,73.29
2023-05-09T03:15:22.640Z,73.12
2023-05-09T03:17:49.601Z,72.86
2023-05-09T03:20:19.649Z,73.32
2023-05-09T03:22:47.808Z,73.89
2023-05-09T03:25:15.778Z,73.60
2023-05-09T03:27:42.527Z,73.52
2023-05-09T03:30:12.380Z,73.51
2023-05-09T03:32:39.374Z,73.91
2023-05-09T03:35:06.320Z,73.96
2023-05-09T03:37:33.075Z,73.94
2023-05-09T03:39:59.818Z,73.94
2023-05-09T03:42:26.649Z,74.39
2023-05-09T03:44:55.960Z,74.40
2023-05-09T03:47:22.963Z,74.80
2023-05-09T03:49:49.614Z,74.71
2023-05-09T03:52:17.649Z,74.94
2023-05-09T03:54:45.066Z,75.14
2023-05-09T03:57:11.673Z,75.24
2023-05-09T03:59:38.409Z,75.01
2023-05-09T04:02:05.365Z,74.40
2023-05-09T04:04:32.447Z,74.40
2023-05-09T04:06:59.493Z,74.72
2023-05-09T04:09:26.946Z,74.87
2023-05-09T04:11:54.171Z,74.53
2023-05-09T04:14:20.854Z,75.24
2023-05-09T04:16:47.616Z,75.08
2023-05-09T04:19:14.452Z,74.91
2023-05-09T04:21:41.168Z,75.20
2023-05-09T04:24:08.078Z,74.79
2023-05-09T04:26:41.779Z,75.35
2023-05-09T04:29:11.150Z,74.34
2023-05-09T04:31:38.190Z,74.25
2023-05-09T04:34:05.835Z,74.26
2023-05-09T04:36:33.581Z,74.17
2023-05-09T04:39:00.424Z,74.25
2023-05-09T04:41:28.920Z,74.45
2023-05-09T04:43:55.819Z,73.99
2023-05-09T04:46:25.820Z,73.96
2023-05-09T04:48:53.260Z,73.43
2023-05-09T04:51:20.456Z,73.03
2023-05-09T04:53:47.075Z,72.81
2023-05-09T04:56:14.828Z,72.65
2023-05-09T04:58:42.244Z,72.40
2023-05-09T05:01:09.841Z,72.17
2023-05-09T05:03:36.757Z,71.86
2023-05-09T05:06:03.774Z,71.65
2023-05-09T05:08:30.734Z,71.08
2023-05-09T05:10:58.329Z,70.60
2023-05-09T05:13:25.533Z,70.27
2023-05-09T05:15:55.786Z,69.90
2023-05-09T05:18:22.504Z,69.73
2023-05-09T05:20:49.253Z,69.17
2023-05-09T05:23:17.736Z,68.77
2023-05-09T05:25:44.471Z,68.51
2023-05-09T05:28:12.540Z,67.74
2023-05-09T05:30:40.570Z,67.39
2023-05-09T05:33:07.273Z,67.81
2023-05-09T05:35:34.218Z,67.79
2023-05-09T05:38:01.142Z,67.56
2023-05-09T05:40:28.477Z,67.05
2023-05-09T05:42:55.409Z,66.02
2023-05-09T05:45:22.219Z,66.10
2023-05-09T05:47:51.181Z,65.98
2023-05-09T05:50:18.518Z,65.69
2023-05-09T05:52:45.025Z,64.05
2023-05-09T05:55:13.785Z,64.73
2023-05-09T05:57:41.211Z,64.13
2023-05-09T06:00:14.387Z,62.82
2023-05-09T06:02:45.229Z,62.89
2023-05-09T06:05:16.988Z,62.71
2023-05-09T06:07:43.686Z,62.38
2023-05-09T06:10:10.843Z,62.11
2023-05-09T06:12:37.755Z,61.95
2023-05-09T06:15:05.306Z,61.79
2023-05-09T06:17:34.009Z,61.19
2023-05-09T06:20:01.741Z,60.64
2023-05-09T06:22:28.308Z,60.74
2023-05-09T06:24:55.072Z,60.47
2023-05-09T06:27:21.805Z,59.78
2023-05-09T06:29:48.405Z,59.16
2023-05-09T06:32:18.213Z,57.89
2023-05-09T06:34:45.005Z,56.74
2023-05-09T06:37:11.550Z,56.23
2023-05-09T06:39:38.343Z,56.23
2023-05-09T06:42:05.093Z,56.86
2023-05-09T06:44:32.192Z,56.53
2023-05-09T06:46:58.921Z,55.25
2023-05-09T06:49:25.938Z,55.09
2023-05-09T06:51:52.556Z,55.44
2023-05-09T06:54:19.375Z,53.93
2023-05-09T06:56:46.055Z,52.47
2023-05-09T06:59:12.848Z,53.04
2023-05-09T07:01:40.563Z,53.08
2023-05-09T07:04:07.336Z,52.80
2023-05-09T07:06:33.932Z,51.65
2023-05-09T07:09:00.644Z,49.79
2023-05-09T07:11:27.377Z,49.10
2023-05-09T07:13:53.899Z,50.37
2023-05-09T07:16:22.406Z,49.94
2023-05-09T07:18:49.150Z,45.11
2023-05-09T07:21:15.717Z,47.43
2023-05-09T07:23:42.495Z,48.50
2023-05-09T07:26:09.051Z,45.70
2023-05-09T07:28:35.510Z,47.24
2023-05-09T07:31:02.868Z,47.70
2023-05-09T07:33:29.456Z,45.68
2023-05-09T07:35:58.193Z,45.53
2023-05-09T07:38:24.941Z,45.13
2023-05-09T07:40:52.646Z,43.72
2023-05-09T07:43:19.234Z,43.11
2023-05-09T07:45:46.544Z,42.54
2023-05-09T07:48:13.197Z,42.07
2023-05-09T07:50:39.722Z,42.70
2023-05-09T07:53:06.528Z,42.82
2023-05-09T07:55:33.191Z,40.90
2023-05-09T07:57:59.875Z,39.24
2023-05-09T08:00:26.806Z,39.27
2023-05-09T08:02:53.690Z,39.92
2023-05-09T08:05:20.434Z,39.75
2023-05-09T08:07:47.283Z,39.45
2023-05-09T08:10:14.030Z,40.18
2023-05-09T08:12:40.664Z,39.30
2023-05-09T08:15:07.875Z,39.16
2023-05-09T08:17:34.736Z,37.64
2023-05-09T08:20:01.284Z,38.23
2023-05-09T08:22:27.987Z,36.34
2023-05-09T08:24:54.771Z,36.61
2023-05-09T08:27:21.211Z,35.38
2023-05-09T08:29:48.145Z,35.83
2023-05-09T08:32:14.904Z,34.54
2023-05-09T08:34:41.450Z,35.36
2023-05-09T08:37:08.238Z,35.09
2023-05-09T08:39:35.042Z,34.36
2023-05-09T08:42:02.181Z,35.74
2023-05-09T08:44:31.092Z,35.73
2023-05-09T08:47:02.758Z,36.29
2023-05-09T08:49:30.910Z,36.02
2023-05-09T08:52:01.859Z,35.68
2023-05-09T08:54:29.891Z,35.98
2023-05-09T08:57:00.490Z,35.65
2023-05-09T08:59:28.175Z,35.46
2023-05-09T09:01:55.336Z,34.74
2023-05-09T09:04:22.273Z,33.97
2023-05-09T09:06:50.432Z,33.92
2023-05-09T09:09:19.664Z,35.17
2023-05-09T09:11:47.617Z,35.62
2023-05-09T09:14:23.239Z,35.62
2023-05-09T09:16:52.422Z,34.17
2023-05-09T09:19:21.872Z,34.01
2023-05-09T09:21:53.452Z,33.66
2023-05-09T09:24:22.387Z,34.05
2023-05-09T09:26:50.657Z,34.04
2023-05-09T09:29:20.182Z,33.55
2023-05-09T09:31:51.695Z,33.22
2023-05-09T09:34:23.264Z,33.78
2023-05-09T09:36:50.502Z,34.48
2023-05-09T09:39:20.374Z,34.06
2023-05-09T09:41:48.180Z,35.16
2023-05-09T09:44:22.554Z,33.85
2023-05-09T09:46:51.595Z,31.73
2023-05-09T09:49:23.394Z,32.02
2023-05-09T09:51:55.244Z,33.39
2023-05-09T09:54:24.973Z,33.13
2023-05-09T09:56:56.310Z,33.54
2023-05-09T09:59:25.163Z,33.63
2023-05-09T10:02:08.036Z,33.24
2023-05-09T10:04:41.464Z,33.07
2023-05-09T10:07:13.529Z,32.14
2023-05-09T10:09:43.219Z,32.41
2023-05-09T10:12:10.001Z,32.93
2023-05-09T10:14:40.769Z,32.31
2023-05-09T10:17:13.811Z,32.18
2023-05-09T10:19:45.454Z,32.64
2023-05-09T10:22:14.886Z,32.39
2023-05-09T10:25:19.959Z,32.81
2023-05-09T10:27:47.770Z,32.11
2023-05-09T10:30:37.462Z,31.99
2023-05-09T10:33:10.498Z,31.95
2023-05-09T10:35:47.219Z,31.96
2023-05-09T10:38:14.170Z,31.72
2023-05-09T10:40:42.490Z,31.90
2023-05-09T10:43:09.010Z,31.82
2023-05-09T10:45:36.167Z,31.27
2023-05-09T10:48:07.260Z,32.25
2023-05-09T10:50:39.805Z,32.61
2023-05-09T10:53:10.928Z,32.29
2023-05-09T10:55:49.704Z,32.73
2023-05-09T10:58:22.356Z,32.46
2023-05-09T11:00:50.120Z,31.52
2023-05-09T11:03:20.750Z,31.09
2023-05-09T11:05:50.892Z,31.04
2023-05-09T11:08:19.389Z,31.58
2023-05-09T11:10:46.138Z,31.44
2023-05-09T11:13:12.959Z,31.41
2023-05-09T11:15:58.708Z,31.16
2023-05-09T11:18:25.480Z,31.53
2023-05-09T11:20:52.192Z,32.04
2023-05-09T11:23:19.570Z,30.37
2023-05-09T11:25:47.428Z,30.24
2023-05-09T11:28:31.568Z,30.69
2023-05-09T11:31:15.810Z,30.69
2023-05-09T11:33:46.307Z,30.73
2023-05-09T11:36:31.376Z,30.67
2023-05-09T11:39:08.000Z,30.51
2023-05-09T11:41:43.697Z,30.87
2023-05-09T11:44:19.464Z,31.20
2023-05-09T11:46:47.565Z,30.63
2023-05-09T11:49:15.269Z,30.91
2023-05-09T11:51:42.121Z,31.18
2023-05-09T11:54:09.959Z,31.39
2023-05-09T11:56:39.192Z,31.66
2023-05-09T11:59:07.012Z,31.77
2023-05-09T12:01:35.745Z,30.93
2023-05-09T12:04:02.520Z,31.46
2023-05-09T12:06:29.580Z,30.98
2023-05-09T12:08:59.025Z,31.31
2023-05-09T12:11:25.620Z,31.42
2023-05-09T12:13:52.466Z,31.47
2023-05-09T12:16:19.934Z,30.94
2023-05-09T12:18:47.263Z,30.87
2023-05-09T12:21:14.019Z,30.79
2023-05-09T12:23:41.083Z,31.67
2023-05-09T12:26:07.712Z,32.26
2023-05-09T12:28:35.802Z,32.14
2023-05-09T12:31:03.827Z,31.46
2023-05-09T12:33:31.162Z,31.62
2023-05-09T12:36:07.297Z,30.41
2023-05-09T12:38:34.020Z,30.98
2023-05-09T12:41:03.888Z,30.50
2023-05-09T12:43:35.779Z,30.41
2023-05-09T12:46:03.710Z,30.12
2023-05-09T12:48:37.229Z,30.24
2023-05-09T12:51:07.422Z,30.13
2023-05-09T12:53:38.607Z,30.18
2023-05-09T12:56:13.229Z,29.90
2023-05-09T12:58:40.363Z,29.70
2023-05-09T13:01:06.966Z,29.82
2023-05-09T13:03:42.826Z,29.95
2023-05-09T13:06:13.948Z,30.41
2023-05-09T13:08:40.971Z,30.37
2023-05-09T13:11:16.573Z,30.41
2023-05-09T13:13:44.387Z,29.65
2023-05-09T13:16:12.825Z,29.99
2023-05-09T13:18:41.549Z,30.05
2023-05-09T13:21:08.345Z,30.38
2023-05-09T13:23:34.919Z,30.34
2023-05-09T13:26:01.554Z,30.51
2023-05-09T13:28:28.418Z,31.11
2023-05-09T13:30:54.944Z,31.78
2023-05-09T13:33:25.819Z,31.15
2023-05-09T13:35:53.804Z,30.93
2023-05-09T13:38:20.407Z,30.56
2023-05-09T13:40:47.232Z,30.81
2023-05-09T13:43:14.223Z,30.26
2023-05-09T13:45:40.746Z,30.17
2023-05-09T13:48:07.525Z,30.12
2023-05-09T13:50:34.694Z,30.39
2023-05-09T13:53:01.365Z,30.70
2023-05-09T13:55:29.120Z,30.32
2023-05-09T13:57:56.093Z,30.14
2023-05-09T14:00:25.877Z,29.93
2023-05-09T14:02:52.876Z,29.79
2023-05-09T14:05:20.053Z,30.31
2023-05-09T14:07:47.131Z,30.40
2023-05-09T14:10:13.945Z,30.58
2023-05-09T14:12:43.594Z,31.19
2023-05-09T14:15:10.727Z,30.97
2023-05-09T14:17:37.456Z,30.57
2023-05-09T14:20:06.432Z,30.18
2023-05-09T14:22:34.351Z,30.55
2023-05-09T14:25:10.045Z,30.81
2023-05-09T14:27:36.995Z,30.18
2023-05-09T14:30:04.363Z,29.35
2023-05-09T14:32:31.149Z,29.22
2023-05-09T14:34:57.918Z,29.41
2023-05-09T14:37:24.677Z,29.95
2023-05-09T14:39:51.420Z,30.05
2023-05-09T14:42:19.135Z,30.21
2023-05-09T14:44:46.703Z,30.26
2023-05-09T14:47:13.459Z,29.97
2023-05-09T14:49:40.932Z,30.18
2023-05-09T14:52:07.610Z,30.69
2023-05-09T14:54:34.426Z,30.63
2023-05-09T14:57:03.916Z,30.53
2023-05-09T14:59:30.526Z,30.04
2023-05-09T15:01:57.211Z,30.14
2023-05-09T15:04:27.639Z,29.97
2023-05-09T15:06:54.277Z,30.49
2023-05-09T15:09:21.058Z,30.29
2023-05-09T15:11:49.248Z,30.28
2023-05-09T15:14:16.140Z,30.18
2023-05-09T15:16:42.949Z,30.22
2023-05-09T15:19:09.868Z,29.85
2023-05-09T15:21:36.457Z,29.69
2023-05-09T15:24:04.402Z,29.68
2023-05-09T15:26:31.489Z,29.70
2023-05-09T15:28:59.447Z,29.70
2023-05-09T15:31:26.290Z,30.14
2023-05-09T15:33:53.181Z,30.18
2023-05-09T15:36:19.708Z,30.31
2023-05-09T15:38:48.800Z,30.24
2023-05-09T15:41:15.813Z,30.42
2023-05-09T15:43:42.374Z,30.44
2023-05-09T15:46:09.183Z,30.76
2023-05-09T15:48:36.042Z,30.59
2023-05-09T15:51:03.443Z,30.85
2023-05-09T15:53:30.045Z,30.86
2023-05-09T15:55:56.746Z,30.83
2023-05-09T15:58:23.343Z,30.72
2023-05-09T16:00:50.634Z,30.57
2023-05-09T16:03:17.970Z,30.55
2023-05-09T16:05:45.062Z,30.78
2023-05-09T16:08:12.071Z,30.87
2023-05-09T16:10:41.143Z,31.02
2023-05-09T16:13:08.790Z,31.33
2023-05-09T16:15:35.577Z,31.46
2023-05-09T16:18:02.392Z,31.40
2023-05-09T16:20:29.018Z,31.49
2023-05-09T16:22:55.779Z,31.30
2023-05-09T16:25:22.884Z,31.61
2023-05-09T16:27:49.694Z,31.85
2023-05-09T16:30:16.783Z,31.76
2023-05-09T16:32:44.215Z,31.78
2023-05-09T16:35:11.346Z,31.74
2023-05-09T16:37:38.093Z,31.94
2023-05-09T16:40:05.526Z,31.82
2023-05-09T16:42:32.345Z,31.72
2023-05-09T16:44:59.031Z,31.93
2023-05-09T16:47:25.844Z,32.03
2023-05-09T16:49:52.533Z,32.41
2023-05-09T16:52:19.886Z,32.43
2023-05-09T16:54:46.676Z,32.40
2023-05-09T16:57:13.409Z,32.74
2023-05-09T16:59:40.103Z,32.85
2023-05-09T17:02:07.564Z,32.87
2023-05-09T17:04:36.650Z,32.79
2023-05-09T17:07:04.367Z,32.90
2023-05-09T17:09:34.545Z,32.81
2023-05-09T17:12:01.820Z,32.79
2023-05-09T17:14:28.813Z,33.11
2023-05-09T17:16:55.441Z,33.32
2023-05-09T17:19:23.042Z,33.33
2023-05-09T17:21:49.809Z,33.38
2023-05-09T17:24:18.909Z,33.53
2023-05-09T17:26:45.544Z,33.51
2023-05-09T17:29:12.090Z,33.80
2023-05-09T17:31:38.777Z,33.80
2023-05-09T17:34:05.388Z,34.01
2023-05-09T17:36:32.979Z,34.18
2023-05-09T17:39:00.251Z,34.42
2023-05-09T17:41:27.098Z,34.41
2023-05-09T17:43:56.683Z,34.55
2023-05-09T17:46:24.140Z,34.65
2023-05-09T17:48:51.463Z,34.97
2023-05-09T17:51:18.308Z,35.08
2023-05-09T17:53:46.223Z,35.22
2023-05-09T17:56:12.851Z,35.32
2023-05-09T17:58:39.416Z,35.58
2023-05-09T18:01:06.570Z,35.45
2023-05-09T18:03:33.374Z,35.64
2023-05-09T18:06:01.145Z,35.93
2023-05-09T18:08:29.035Z,35.95
2023-05-09T18:10:56.244Z,36.27
2023-05-09T18:13:23.149Z,36.16
2023-05-09T18:15:49.931Z,36.39
2023-05-09T18:18:16.747Z,36.50
2023-05-09T18:20:45.745Z,36.83
2023-05-09T18:23:14.220Z,37.58
2023-05-09T18:25:41.482Z,38.67
2023-05-09T18:28:08.826Z,39.71
2023-05-09T18:30:35.590Z,40.08
2023-05-09T18:33:02.267Z,40.18
2023-05-09T18:35:29.369Z,40.67
2023-05-09T18:37:56.140Z,40.92
2023-05-09T18:40:23.073Z,41.12
2023-05-09T18:42:49.858Z,41.47
2023-05-09T18:45:16.813Z,41.14
2023-05-09T18:47:43.435Z,41.44
2023-05-09T18:50:10.771Z,40.86
2023-05-09T18:52:37.880Z,41.01
2023-05-09T18:55:05.380Z,41.07
2023-05-09T18:57:33.285Z,41.72
2023-05-09T19:00:00.934Z,41.65
2023-05-09T19:02:29.459Z,41.92
2023-05-09T19:04:56.256Z,41.99
2023-05-09T19:07:23.049Z,41.82
2023-05-09T19:09:49.761Z,42.23
2023-05-09T19:12:17.245Z,42.02
2023-05-09T19:14:44.028Z,42.53
2023-05-09T19:17:10.618Z,42.72
2023-05-09T19:19:37.359Z,42.74
2023-05-09T19:22:04.337Z,42.82
2023-05-09T19:24:32.126Z,43.47
2023-05-09T19:26:58.813Z,44.50
2023-05-09T19:29:25.558Z,44.72
2023-05-09T19:31:52.102Z,45.61
2023-05-09T19:34:18.772Z,45.33
2023-05-09T19:36:45.611Z,45.17
2023-05-09T19:39:12.158Z,45.23
2023-05-09T19:41:38.762Z,44.95
2023-05-09T19:44:06.523Z,45.05
2023-05-09T19:46:33.206Z,44.71
2023-05-09T19:49:00.966Z,44.95
2023-05-09T19:51:27.877Z,44.75
2023-05-09T19:53:54.742Z,44.62
2023-05-09T19:56:22.670Z,45.52
2023-05-09T19:58:49.745Z,45.52
2023-05-09T20:01:18.557Z,46.66
2023-05-09T20:03:46.427Z,46.54
2023-05-09T20:06:13.754Z,46.82
2023-05-09T20:08:40.940Z,47.34
2023-05-09T20:11:07.856Z,47.31
2023-05-09T20:13:34.803Z,47.13
2023-05-09T20:16:02.661Z,46.91
2023-05-09T20:18:32.708Z,47.40
2023-05-09T20:21:00.569Z,47.51
2023-05-09T20:23:27.757Z,48.29
2023-05-09T20:25:55.349Z,48.56
2023-05-09T20:28:22.421Z,47.80
2023-05-09T20:30:49.429Z,47.50
2023-05-09T20:33:16.461Z,47.93
2023-05-09T20:35:43.357Z,48.07
2023-05-09T20:38:11.144Z,48.53
2023-05-09T20:40:38.129Z,48.32
2023-05-09T20:43:04.932Z,47.92
2023-05-09T20:45:31.780Z,47.71
2023-05-09T20:47:58.959Z,48.12
2023-05-09T20:50:25.882Z,48.06
2023-05-09T20:52:52.532Z,48.07
2023-05-09T20:55:19.313Z,48.07
2023-05-09T20:57:46.108Z,47.85
2023-05-09T21:00:13.188Z,47.81
2023-05-09T21:02:40.307Z,48.52
2023-05-09T21:05:08.030Z,48.29
2023-05-09T21:07:35.068Z,48.34
2023-05-09T21:10:01.862Z,48.22
2023-05-09T21:12:29.956Z,48.18
2023-05-09T21:14:57.215Z,48.44
2023-05-09T21:17:24.026Z,48.22
2023-05-09T21:19:51.314Z,48.43
2023-05-09T21:22:17.795Z,49.10
2023-05-09T21:24:44.806Z,48.52
2023-05-09T21:27:11.461Z,48.69
2023-05-09T21:29:38.015Z,48.61
2023-05-09T21:32:05.109Z,48.65
2023-05-09T21:34:31.780Z,48.69
2023-05-09T21:36:58.413Z,48.75
2023-05-09T21:39:25.189Z,49.54
2023-05-09T21:41:51.827Z,49.38
2023-05-09T21:44:18.352Z,49.17
2023-05-09T21:46:45.717Z,49.16
2023-05-09T21:49:16.093Z,49.54
2023-05-09T21:51:47.813Z,49.59
2023-05-09T21:54:14.811Z,49.53
2023-05-09T21:56:42.030Z,49.99
2023-05-09T21:59:09.153Z,49.85
2023-05-09T22:01:36.558Z,50.31
2023-05-09T22:04:03.224Z,50.12
2023-05-09T22:06:30.727Z,50.34
2023-05-09T22:08:57.664Z,50.25
2023-05-09T22:11:24.326Z,50.26
2023-05-09T22:13:52.430Z,50.55
2023-05-09T22:16:19.459Z,50.55
2023-05-09T22:18:46.005Z,50.45
2023-05-09T22:21:12.700Z,50.81
2023-05-09T22:23:39.605Z,50.99
2023-05-09T22:26:06.405Z,50.66
2023-05-09T22:28:32.905Z,51.06
2023-05-09T22:30:59.880Z,51.07
2023-05-09T22:33:26.484Z,51.09
2023-05-09T22:35:53.203Z,51.10
2023-05-09T22:38:20.060Z,51.73
2023-05-09T22:40:46.584Z,51.60
2023-05-09T22:43:13.211Z,51.63
2023-05-09T22:45:39.964Z,52.44
2023-05-09T22:48:06.930Z,51.87
2023-05-09T22:50:34.612Z,51.68
2023-05-09T22:53:01.817Z,51.73
2023-05-09T22:55:28.842Z,52.61
2023-05-09T22:57:55.469Z,52.74
2023-05-09T23:00:22.344Z,52.78
2023-05-09T23:02:49.028Z,52.96
2023-05-09T23:05:15.695Z,52.77
2023-05-09T23:07:42.448Z,52.62
2023-05-09T23:10:09.262Z,52.60
2023-05-09T23:12:37.377Z,53.27
2023-05-09T23:15:05.846Z,53.35
2023-05-09T23:17:32.697Z,53.26
2023-05-09T23:20:00.174Z,53.45
2023-05-09T23:22:27.081Z,53.35
2023-05-09T23:24:53.815Z,53.98
2023-05-09T23:27:20.356Z,54.15
2023-05-09T23:29:46.921Z,54.08
2023-05-09T23:32:13.466Z,54.17
2023-05-09T23:34:40.118Z,54.01
2023-05-09T23:37:06.848Z,54.11
2023-05-09T23:39:34.047Z,54.58
2023-05-09T23:42:00.572Z,55.10
2023-05-09T23:44:27.348Z,54.95
2023-05-09T23:46:53.957Z,54.89
2023-05-09T23:49:20.772Z,54.92
2023-05-09T23:51:47.631Z,54.97
2023-05-09T23:54:15.953Z,55.44
2023-05-09T23:56:42.781Z,55.69
2023-05-09T23:59:09.480Z,55.41
